createdAt,value
2022-11-11T00:01:47.484Z,23.08
2022-11-11T00:04:16.712Z,23.85
2022-11-11T00:06:47.789Z,24.20
2022-11-11T00:09:15.808Z,25.13
2022-11-11T00:11:46.128Z,24.52
2022-11-11T00:14:16.228Z,25.52
2022-11-11T00:17:02.760Z,25.80
2022-11-11T00:19:55.554Z,25.92
2022-11-11T00:22:43.011Z,24.52
2022-11-11T00:25:11.282Z,23.63
2022-11-11T00:27:45.618Z,21.67
2022-11-11T00:30:12.873Z,22.15
2022-11-11T00:32:47.046Z,23.05
2022-11-11T00:35:33.785Z,22.92
2022-11-11T00:38:32.699Z,22.10
2022-11-11T00:41:02.097Z,22.15
2022-11-11T00:43:29.782Z,22.27
2022-11-11T00:46:23.289Z,20.67
2022-11-11T00:49:14.668Z,20.80
2022-11-11T00:51:48.638Z,19.58
2022-11-11T00:54:26.603Z,19.75
2022-11-11T00:56:54.772Z,18.30
2022-11-11T00:59:21.917Z,19.33
2022-11-11T01:01:50.011Z,19.33
2022-11-11T01:04:17.143Z,19.48
2022-11-11T01:06:48.369Z,19.48
2022-11-11T01:09:15.451Z,18.00
2022-11-11T01:11:50.311Z,20.15
2022-11-11T01:14:24.208Z,20.42
2022-11-11T01:16:52.317Z,21.98
2022-11-11T01:19:21.456Z,20.77
2022-11-11T01:21:52.612Z,20.80
2022-11-11T01:24:21.948Z,21.70
2022-11-11T01:26:49.059Z,20.65
2022-11-11T01:29:17.250Z,21.58
2022-11-11T01:31:44.290Z,22.08
2022-11-11T01:34:11.788Z,22.00
2022-11-11T01:36:39.139Z,21.95
2022-11-11T01:39:07.375Z,23.20
2022-11-11T01:41:39.237Z,22.35
2022-11-11T01:44:17.656Z,24.10
2022-11-11T01:47:04.916Z,24.00
2022-11-11T01:49:58.022Z,23.63
2022-11-11T01:52:35.891Z,24.23
2022-11-11T01:55:26.035Z,24.48
2022-11-11T01:57:59.519Z,24.67
2022-11-11T02:03:15.564Z,24.77
2022-11-11T02:05:58.165Z,25.08
2022-11-11T02:08:37.121Z,25.58
2022-11-11T02:11:44.500Z,24.63
2022-11-11T02:14:33.095Z,25.27
2022-11-11T02:17:05.643Z,25.02
2022-11-11T02:19:49.003Z,25.25
2022-11-11T02:22:35.210Z,25.13
2022-11-11T02:25:05.285Z,24.25
2022-11-11T02:27:42.906Z,23.98
2022-11-11T02:30:15.908Z,25.33
2022-11-11T02:32:48.304Z,24.95
2022-11-11T02:35:18.871Z,23.92
2022-11-11T02:37:52.397Z,23.48
2022-11-11T02:43:00.390Z,22.10
2022-11-11T02:45:36.041Z,21.50
2022-11-11T02:48:13.209Z,21.38
2022-11-11T02:50:41.384Z,21.55
2022-11-11T02:53:10.631Z,20.50
2022-11-11T02:55:44.620Z,21.00
2022-11-11T02:58:21.900Z,21.15
2022-11-11T03:00:49.123Z,20.20
2022-11-11T03:03:16.206Z,21.08
2022-11-11T03:05:53.689Z,19.30
2022-11-11T03:08:31.763Z,17.58
2022-11-11T03:11:04.113Z,18.40
2022-11-11T03:13:32.109Z,19.58
2022-11-11T03:16:02.053Z,19.42
2022-11-11T03:18:29.106Z,19.30
2022-11-11T03:21:54.405Z,18.67
2022-11-11T03:23:54.048Z,17.55
2022-11-11T03:26:21.503Z,19.05
2022-11-11T03:28:51.142Z,21.20
2022-11-11T03:31:32.455Z,25.05
2022-11-11T03:34:19.004Z,19.40
2022-11-11T03:37:05.809Z,17.27
2022-11-11T03:39:51.743Z,18.05
2022-11-11T03:42:18.812Z,16.75
2022-11-11T03:44:50.955Z,17.38
2022-11-11T03:47:31.345Z,17.48
2022-11-11T03:49:58.443Z,17.52
2022-11-11T03:52:28.543Z,20.15
2022-11-11T03:54:56.546Z,18.65
2022-11-11T03:57:33.813Z,17.25
2022-11-11T04:00:02.858Z,18.33
2022-11-11T04:02:52.364Z,20.75
2022-11-11T04:05:39.049Z,17.83
2022-11-11T04:09:01.640Z,20.10
2022-11-11T04:11:33.865Z,17.88
2022-11-11T04:14:33.524Z,19.70
2022-11-11T04:17:07.493Z,19.55
2022-11-11T04:20:01.994Z,19.88
2022-11-11T04:22:42.384Z,21.77
2022-11-11T04:25:41.619Z,22.27
2022-11-11T04:28:27.345Z,22.02
2022-11-11T04:30:54.344Z,21.70
2022-11-11T04:33:26.669Z,21.05
2022-11-11T04:35:59.891Z,22.23
2022-11-11T04:38:46.229Z,23.40
2022-11-11T04:41:21.174Z,21.63
2022-11-11T04:44:08.713Z,21.95
2022-11-11T04:46:45.600Z,23.67
2022-11-11T04:49:12.680Z,22.10
2022-11-11T04:51:58.169Z,22.02
2022-11-11T04:54:54.145Z,22.33
2022-11-11T04:57:23.154Z,22.52
2022-11-11T04:59:50.243Z,22.50
2022-11-11T05:02:36.821Z,23.38
2022-11-11T05:05:09.704Z,22.50
2022-11-11T05:08:02.162Z,21.50
2022-11-11T05:10:35.234Z,21.30
2022-11-11T05:13:26.876Z,22.73
2022-11-11T05:16:27.145Z,20.58
2022-11-11T05:19:18.446Z,21.70
2022-11-11T05:21:46.766Z,19.05
2022-11-11T05:24:39.225Z,20.55
2022-11-11T05:27:07.229Z,19.33
2022-11-11T05:29:34.295Z,19.70
2022-11-11T05:32:09.839Z,20.60
2022-11-11T05:34:36.881Z,20.98
2022-11-11T05:37:05.964Z,19.13
2022-11-11T05:39:32.985Z,17.95
2022-11-11T05:42:11.443Z,17.58
2022-11-11T05:44:38.909Z,17.67
2022-11-11T05:47:21.106Z,17.90
2022-11-11T05:49:48.150Z,19.70
2022-11-11T05:52:17.431Z,20.75
2022-11-11T05:54:46.366Z,19.38
2022-11-11T05:57:21.665Z,21.23
2022-11-11T05:59:48.878Z,20.00
2022-11-11T06:02:21.708Z,20.38
2022-11-11T06:04:50.054Z,19.45
2022-11-11T06:07:19.232Z,18.63
2022-11-11T06:09:50.586Z,30.63
2022-11-11T06:12:18.739Z,24.02
2022-11-11T06:14:59.002Z,18.58
2022-11-11T06:17:27.989Z,19.15
2022-11-11T06:19:55.053Z,17.92
2022-11-11T06:22:57.423Z,21.25
2022-11-11T06:25:57.300Z,19.38
2022-11-11T06:31:21.135Z,23.45
2022-11-11T06:33:48.393Z,21.55
2022-11-11T06:36:24.622Z,18.90
2022-11-11T06:38:51.573Z,17.45
2022-11-11T06:41:19.292Z,16.33
2022-11-11T06:43:49.362Z,17.73
2022-11-11T06:46:26.210Z,16.27
2022-11-11T06:48:57.754Z,17.05
2022-11-11T06:51:24.811Z,15.52
2022-11-11T06:53:51.990Z,16.02
2022-11-11T06:56:28.164Z,15.90
2022-11-11T06:58:57.175Z,15.68
2022-11-11T07:01:33.521Z,15.80
2022-11-11T07:04:02.004Z,17.70
2022-11-11T07:06:29.077Z,16.52
2022-11-11T07:09:28.986Z,16.17
2022-11-11T07:11:57.049Z,16.45
2022-11-11T07:14:24.241Z,17.15
2022-11-11T07:16:52.226Z,16.92
2022-11-11T07:19:21.382Z,17.60
2022-11-11T07:21:50.565Z,16.83
2022-11-11T07:24:17.589Z,18.23
2022-11-11T07:26:45.667Z,18.30
2022-11-11T07:29:14.474Z,16.42
2022-11-11T07:31:42.268Z,16.63
2022-11-11T07:34:09.235Z,18.40
2022-11-11T07:36:37.244Z,18.40
2022-11-11T07:39:08.925Z,19.17
2022-11-11T07:41:37.221Z,18.08
2022-11-11T07:44:05.430Z,18.23
2022-11-11T07:46:33.665Z,17.67
2022-11-11T07:49:01.692Z,17.35
2022-11-11T07:51:28.724Z,17.33
2022-11-11T07:53:58.036Z,17.15
2022-11-11T07:56:25.060Z,17.33
2022-11-11T07:58:53.479Z,17.98
2022-11-11T08:01:22.670Z,17.65
2022-11-11T08:03:50.814Z,18.00
2022-11-11T08:06:22.684Z,17.27
2022-11-11T08:08:52.981Z,17.35
2022-11-11T08:11:44.113Z,17.55
2022-11-11T08:14:17.184Z,16.85
2022-11-11T08:16:45.231Z,18.05
2022-11-11T08:19:13.347Z,16.25
2022-11-11T08:21:44.529Z,16.25
2022-11-11T08:27:10.069Z,15.75
2022-11-11T08:29:37.211Z,14.55
2022-11-11T08:32:04.656Z,14.18
2022-11-11T08:34:31.969Z,15.02
2022-11-11T08:37:02.061Z,15.75
2022-11-11T08:39:29.327Z,15.90
2022-11-11T08:41:56.376Z,13.82
2022-11-11T08:44:24.573Z,13.45
2022-11-11T08:46:54.809Z,14.23
2022-11-11T08:49:23.097Z,13.52
2022-11-11T08:51:50.071Z,12.40
2022-11-11T08:54:17.065Z,12.95
2022-11-11T08:56:51.953Z,11.50
2022-11-11T08:59:25.041Z,11.90
2022-11-11T09:01:52.086Z,10.93
2022-11-11T09:07:10.788Z,9.70
2022-11-11T09:09:44.051Z,10.55
2022-11-11T09:12:11.132Z,9.98
2022-11-11T09:14:39.281Z,9.32
2022-11-11T09:17:07.386Z,9.13
2022-11-11T09:19:37.861Z,9.38
2022-11-11T09:22:05.345Z,8.45
2022-11-11T09:24:32.391Z,8.10
2022-11-11T09:26:59.389Z,8.00
2022-11-11T09:29:26.495Z,6.88
2022-11-11T09:31:53.544Z,6.53
2022-11-11T09:34:20.634Z,6.40
2022-11-11T09:36:50.781Z,7.03
2022-11-11T09:39:17.910Z,7.15
2022-11-11T09:41:46.068Z,6.95
2022-11-11T09:45:02.622Z,6.78
2022-11-11T09:47:44.639Z,7.18
2022-11-11T09:50:26.895Z,7.28
2022-11-11T09:53:09.942Z,6.90
2022-11-11T09:55:50.080Z,7.27
2022-11-11T09:58:24.397Z,6.95
2022-11-11T10:01:09.695Z,7.05
2022-11-11T10:03:47.124Z,7.20
2022-11-11T10:06:24.341Z,6.30
2022-11-11T10:09:07.839Z,7.05
2022-11-11T10:12:14.191Z,6.85
2022-11-11T10:14:47.360Z,6.35
2022-11-11T10:17:52.095Z,6.90
2022-11-11T10:20:43.454Z,6.90
2022-11-11T10:23:29.642Z,8.07
2022-11-11T10:26:02.940Z,8.38
2022-11-11T10:28:36.260Z,7.82
2022-11-11T10:31:16.040Z,8.90
2022-11-11T10:34:02.180Z,9.10
2022-11-11T10:36:37.254Z,9.25
2022-11-11T10:39:06.707Z,9.93
2022-11-11T10:42:01.882Z,8.60
2022-11-11T10:44:36.717Z,9.00
2022-11-11T10:47:13.710Z,9.00
2022-11-11T10:49:55.840Z,8.70
2022-11-11T10:52:35.958Z,9.07
2022-11-11T10:55:10.100Z,7.43
2022-11-11T10:57:45.463Z,7.85
2022-11-11T11:00:14.725Z,8.10
2022-11-11T11:03:00.002Z,7.53
2022-11-11T11:05:29.518Z,6.78
2022-11-11T11:10:42.955Z,6.63
2022-11-11T11:13:28.560Z,7.10
2022-11-11T11:16:11.238Z,8.68
2022-11-11T11:18:43.091Z,7.63
2022-11-11T11:21:12.554Z,7.85
2022-11-11T11:23:43.348Z,8.70
2022-11-11T11:26:13.801Z,9.98
2022-11-11T11:28:58.868Z,8.88
2022-11-11T11:31:41.145Z,9.82
2022-11-11T11:34:09.242Z,9.23
2022-11-11T11:36:37.234Z,10.82
2022-11-11T11:39:07.431Z,10.52
2022-11-11T11:41:53.143Z,9.85
2022-11-11T11:44:34.199Z,9.70
2022-11-11T11:47:27.561Z,8.95
2022-11-11T11:50:14.482Z,8.97
2022-11-11T11:53:05.795Z,8.43
2022-11-11T11:56:20.579Z,9.43
2022-11-11T11:59:06.918Z,8.57
2022-11-11T12:01:41.374Z,8.65
2022-11-11T12:04:23.362Z,9.00
2022-11-11T12:07:32.532Z,9.02
2022-11-11T12:10:04.359Z,8.15
2022-11-11T12:12:59.375Z,8.00
2022-11-11T12:15:39.580Z,7.65
2022-11-11T12:18:59.440Z,8.25
2022-11-11T12:21:48.769Z,8.27
2022-11-11T12:24:25.882Z,8.32
2022-11-11T12:27:17.753Z,9.02
2022-11-11T12:29:54.495Z,8.80
2022-11-11T12:32:59.769Z,12.85
2022-11-11T12:35:49.331Z,10.07
2022-11-11T12:38:58.048Z,9.57
2022-11-11T12:41:47.887Z,9.90
2022-11-11T12:44:18.019Z,9.35
2022-11-11T12:47:03.603Z,9.98
2022-11-11T12:49:50.505Z,9.07
2022-11-11T12:52:59.146Z,8.60
2022-11-11T12:55:44.253Z,8.75
2022-11-11T12:58:45.029Z,8.95
2022-11-11T13:01:30.249Z,9.02
2022-11-11T13:04:10.267Z,8.98
2022-11-11T13:07:14.595Z,8.75
2022-11-11T13:09:51.949Z,9.07
2022-11-11T13:12:59.238Z,9.48
2022-11-11T13:15:27.846Z,11.27
2022-11-11T13:17:55.260Z,12.93
2022-11-11T13:21:06.596Z,11.30
2022-11-11T13:23:33.795Z,10.50
2022-11-11T13:26:12.650Z,9.55
2022-11-11T13:28:48.608Z,9.25
2022-11-11T13:31:29.770Z,10.23
2022-11-11T13:34:21.079Z,9.48
2022-11-11T13:36:54.978Z,10.50
2022-11-11T13:39:51.855Z,11.98
2022-11-11T13:42:29.305Z,10.25
2022-11-11T13:45:03.649Z,9.52
2022-11-11T13:47:37.496Z,7.90
2022-11-11T13:50:26.447Z,8.23
2022-11-11T13:53:05.715Z,8.40
2022-11-11T13:55:38.678Z,8.45
2022-11-11T13:58:07.118Z,8.18
2022-11-11T14:00:39.374Z,8.65
2022-11-11T14:03:18.702Z,7.40
2022-11-11T14:05:46.709Z,9.00
2022-11-11T14:08:50.874Z,8.98
2022-11-11T14:11:27.012Z,9.80
2022-11-11T14:14:33.184Z,9.65
2022-11-11T14:17:14.896Z,8.77
2022-11-11T14:19:44.990Z,8.57
2022-11-11T14:22:34.393Z,8.57
2022-11-11T14:25:35.530Z,7.82
2022-11-11T14:28:03.775Z,8.60
2022-11-11T14:30:41.203Z,7.80
2022-11-11T14:33:32.135Z,8.77
2022-11-11T14:36:22.904Z,8.82
2022-11-11T14:39:01.932Z,10.10
2022-11-11T14:41:58.471Z,9.98
2022-11-11T14:44:32.420Z,11.40
2022-11-11T14:47:42.669Z,13.77
2022-11-11T14:50:35.770Z,12.25
2022-11-11T14:53:18.203Z,12.63
2022-11-11T14:55:53.033Z,11.93
2022-11-11T14:58:27.265Z,15.13
2022-11-11T15:01:12.763Z,15.13
2022-11-11T15:03:50.345Z,15.07
2022-11-11T15:06:27.173Z,14.20
2022-11-11T15:09:28.194Z,13.98
2022-11-11T15:12:01.448Z,15.27
2022-11-11T15:14:57.520Z,12.80
2022-11-11T15:18:09.632Z,10.73
2022-11-11T15:21:03.726Z,8.98
2022-11-11T15:23:43.743Z,10.82
2022-11-11T15:26:29.156Z,9.85
2022-11-11T15:29:20.858Z,9.57
2022-11-11T15:31:51.671Z,9.95
2022-11-11T15:34:44.778Z,9.55
2022-11-11T15:37:22.295Z,9.15
2022-11-11T15:39:56.074Z,10.25
2022-11-11T15:42:32.370Z,10.82
2022-11-11T15:45:04.184Z,10.73
2022-11-11T15:47:36.823Z,10.43
2022-11-11T15:50:46.387Z,10.20
2022-11-11T15:53:24.586Z,10.23
2022-11-11T15:56:01.049Z,10.30
2022-11-11T15:58:32.405Z,10.18
2022-11-11T16:01:08.539Z,10.60
2022-11-11T16:03:45.687Z,11.50
2022-11-11T16:06:15.644Z,10.50
2022-11-11T16:08:49.360Z,12.15
2022-11-11T16:14:08.588Z,13.02
2022-11-11T16:17:35.185Z,12.55
2022-11-11T16:20:04.983Z,11.65
2022-11-11T16:22:48.304Z,12.93
2022-11-11T16:25:22.463Z,12.77
2022-11-11T16:27:52.911Z,12.93
2022-11-11T16:30:46.506Z,13.50
2022-11-11T16:33:31.916Z,12.95
2022-11-11T16:36:18.395Z,12.48
2022-11-11T16:38:45.442Z,12.48
2022-11-11T16:41:34.987Z,13.68
2022-11-11T16:44:23.493Z,13.63
2022-11-11T16:46:59.766Z,12.68
2022-11-11T16:49:39.183Z,12.50
2022-11-11T16:52:25.508Z,13.98
2022-11-11T16:54:58.794Z,13.60
2022-11-11T16:57:37.072Z,13.48
2022-11-11T17:00:14.158Z,23.50
2022-11-11T17:10:16.170Z,12.63
2022-11-11T17:12:43.724Z,11.80
2022-11-11T17:15:17.915Z,12.63
2022-11-11T17:17:50.270Z,11.43
2022-11-11T17:20:22.064Z,11.65
2022-11-11T17:23:00.826Z,10.32
2022-11-11T17:25:27.968Z,11.13
2022-11-11T17:30:40.601Z,11.27
2022-11-11T17:33:08.043Z,11.85
2022-11-11T17:35:35.681Z,12.40
2022-11-11T17:38:06.345Z,11.38
2022-11-11T17:40:40.886Z,12.40
2022-11-11T17:46:55.638Z,12.10
2022-11-11T17:49:49.978Z,11.73
2022-11-11T17:52:13.158Z,11.85
2022-11-11T17:54:40.194Z,10.63
2022-11-11T17:57:08.186Z,10.55
2022-11-11T17:59:37.410Z,13.35
2022-11-11T18:02:07.906Z,13.05
2022-11-11T18:04:36.084Z,11.95
2022-11-11T18:07:48.501Z,12.70
2022-11-11T18:10:08.960Z,10.80
2022-11-11T18:13:09.675Z,12.02
2022-11-11T18:15:53.437Z,11.45
2022-11-11T18:18:22.841Z,11.25
2022-11-11T18:20:54.399Z,11.88
2022-11-11T18:27:13.305Z,11.68
2022-11-11T18:29:43.233Z,12.25
2022-11-11T18:32:15.725Z,14.27
2022-11-11T18:38:11.938Z,14.50
2022-11-11T18:45:23.581Z,17.75
2022-11-11T18:47:53.420Z,19.58
2022-11-11T18:50:23.105Z,19.90
2022-11-11T18:52:53.415Z,19.38
2022-11-11T18:55:33.844Z,21.20
2022-11-11T18:58:13.404Z,19.92
2022-11-11T19:00:46.048Z,20.70
2022-11-11T19:03:22.302Z,20.77
2022-11-11T19:05:53.968Z,21.25
2022-11-11T19:08:22.606Z,21.08
2022-11-11T19:10:54.784Z,21.45
2022-11-11T19:13:23.347Z,22.10
2022-11-11T19:15:52.180Z,21.13
2022-11-11T19:18:21.421Z,20.92
2022-11-11T19:20:49.193Z,20.38
2022-11-11T19:23:16.554Z,20.27
2022-11-11T19:25:44.695Z,19.73
2022-11-11T19:28:18.557Z,19.25
2022-11-11T19:30:50.226Z,20.25
2022-11-11T19:33:17.273Z,21.20
2022-11-11T19:35:44.533Z,22.45
2022-11-11T19:38:11.735Z,21.13
2022-11-11T19:40:38.872Z,20.00
2022-11-11T19:43:06.514Z,20.02
2022-11-11T19:45:36.894Z,19.75
2022-11-11T19:48:04.500Z,19.35
2022-11-11T19:50:31.571Z,19.42
2022-11-11T19:52:59.964Z,20.23
2022-11-11T19:55:31.180Z,19.55
2022-11-11T19:57:58.602Z,20.70
2022-11-11T20:00:30.883Z,17.95
2022-11-11T20:02:57.904Z,19.05
2022-11-11T20:05:25.361Z,18.58
2022-11-11T20:08:10.219Z,17.52
2022-11-11T20:10:42.260Z,17.77
2022-11-11T20:13:10.283Z,17.30
2022-11-11T20:15:37.691Z,17.60
2022-11-11T20:18:04.790Z,19.02
2022-11-11T20:20:31.892Z,18.00
2022-11-11T20:22:59.150Z,18.50
2022-11-11T20:25:26.577Z,17.70
2022-11-11T20:27:54.830Z,18.23
2022-11-11T20:30:24.030Z,17.42
2022-11-11T20:32:52.703Z,17.95
2022-11-11T20:35:21.252Z,19.05
2022-11-11T20:37:49.401Z,17.88
2022-11-11T20:40:21.014Z,17.55
2022-11-11T20:42:49.154Z,18.65
2022-11-11T20:45:17.643Z,18.58
2022-11-11T20:47:46.620Z,18.35
2022-11-11T20:50:15.373Z,17.38
2022-11-11T20:52:43.661Z,18.27
2022-11-11T20:55:11.975Z,17.67
2022-11-11T20:57:41.169Z,17.88
2022-11-11T21:00:09.760Z,17.58
2022-11-11T21:02:40.201Z,17.35
2022-11-11T21:05:10.171Z,18.58
2022-11-11T21:07:38.464Z,17.52
2022-11-11T21:10:06.426Z,18.83
2022-11-11T21:12:38.980Z,19.45
2022-11-11T21:15:07.201Z,19.77
2022-11-11T21:17:35.320Z,19.63
2022-11-11T21:20:02.720Z,20.08
2022-11-11T21:22:32.083Z,20.75
2022-11-11T21:24:59.926Z,19.88
2022-11-11T21:27:34.017Z,19.92
2022-11-11T21:30:02.970Z,19.02
2022-11-11T21:32:36.383Z,19.80
2022-11-11T21:35:12.107Z,22.17
2022-11-11T21:37:41.217Z,22.73
2022-11-11T21:40:10.444Z,22.13
2022-11-11T21:42:46.083Z,21.63
2022-11-11T21:45:30.302Z,21.63
2022-11-11T21:48:03.702Z,22.27
2022-11-11T21:50:34.955Z,22.88
2022-11-11T21:53:03.042Z,22.48
2022-11-11T21:55:32.111Z,22.52
2022-11-11T21:57:59.183Z,22.67
2022-11-11T22:00:31.342Z,23.30
2022-11-11T22:03:05.519Z,24.02
2022-11-11T22:05:33.621Z,23.38
2022-11-11T22:08:05.113Z,23.83
2022-11-11T22:10:32.352Z,23.98
2022-11-11T22:13:06.512Z,23.48
2022-11-11T22:15:38.841Z,22.77
2022-11-11T22:18:06.183Z,23.73
2022-11-11T22:20:47.469Z,23.70
2022-11-11T22:23:14.505Z,23.58
2022-11-11T22:25:47.427Z,22.92
2022-11-11T22:28:16.537Z,23.25
2022-11-11T22:30:51.727Z,24.35
2022-11-11T22:33:25.060Z,23.35
2022-11-11T22:35:53.101Z,24.73
2022-11-11T22:38:30.760Z,25.27
2022-11-11T22:41:31.921Z,26.05
2022-11-11T22:44:01.270Z,25.55
2022-11-11T22:46:30.185Z,25.63
2022-11-11T22:49:02.932Z,27.33
2022-11-11T22:51:54.272Z,28.60
2022-11-11T22:54:23.400Z,36.17
2022-11-11T22:56:51.531Z,38.40
2022-11-11T22:59:32.466Z,43.13
2022-11-11T23:01:59.657Z,47.55
2022-11-11T23:04:30.766Z,39.13
2022-11-11T23:07:00.959Z,36.90
2022-11-11T23:09:29.978Z,35.75
2022-11-11T23:11:57.072Z,33.25
2022-11-11T23:14:32.164Z,36.78
2022-11-11T23:16:59.270Z,34.42
2022-11-11T23:19:35.090Z,36.45
2022-11-11T23:22:08.740Z,35.00
2022-11-11T23:24:44.004Z,35.40
2022-11-11T23:27:11.111Z,34.03
2022-11-11T23:29:40.213Z,32.75
2022-11-11T23:32:07.220Z,32.92
2022-11-11T23:34:35.370Z,31.77
2022-11-11T23:37:07.784Z,31.58
2022-11-11T23:39:36.276Z,33.80
2022-11-11T23:42:03.404Z,34.25
2022-11-11T23:44:41.730Z,39.38
2022-11-11T23:47:10.837Z,39.42
2022-11-11T23:49:38.990Z,54.15
2022-11-11T23:52:06.101Z,54.10
2022-11-11T23:54:33.176Z,49.38
2022-11-11T23:57:01.261Z,53.10
2022-11-11T23:59:35.512Z,42.60
